New Hampton, Missouri
Current Conditions -  °F | °C
As of 5:11 PM on Thursday 18 Dec 2014 (Local Time) from KLWD Reporting Station
Overcast Overcast  
Wind Chill: 30°   Ceiling: 1100
Heat Index: 30°   Visibility: 10mi
Dew Point: 25°   Wind: 0mph
Humidity: 82%   Direction: NA
Pressure: 30.22"   Gusts: NA
Location:  40.26°N, 94.2°W
Report Text: KLWD 182311Z AUTO 00000KT 10SM BKN011 OVC022 M01/M04 A3022 RMK AO2 T10111039
Loading
Personal Weather Stations






























Interactive Weather Map New forecast layout! Learn more

10-Day Weather Forecast

Advertisements
Track Severe Weather on mobile